Time;durP1;ratioP1;P1;durP2;ratioP2;P2;SDS_P1;SDS_P2;PMS_P1;PMS_P2;Temp;Humidity;BMP_temperature;BMP_pressure;BME280_temperature;BME280_humidity;BME280_pressure;Samples;Min_cycle;Max_cycle;Signal;HPM_P1;HPM_P2
2022/01/15 00:00:37;;;;;;;0.43;0.30;;;;;;;-1.11;75.53;98708.13;5066922;28;20490;-81
2022/01/15 00:03:12;;;;;;;0.90;0.30;;;;;;;-1.08;75.70;98718.38;5067828;28;20048;-81
2022/01/15 00:05:38;;;;;;;0.30;0.28;;;;;;;-1.06;75.49;98723.50;5067009;28;20048;-80
2022/01/15 00:08:05;;;;;;;0.40;0.22;;;;;;;-1.07;76.18;98733.47;5052089;28;20115;-81
2022/01/15 00:10:30;;;;;;;0.30;0.30;;;;;;;-1.07;75.57;98738.84;5031042;28;20033;-81
2022/01/15 00:12:57;;;;;;;0.52;0.45;;;;;;;-1.06;75.10;98739.66;5058078;28;20131;-81
2022/01/15 00:15:52;;;;;;;0.50;0.30;;;;;;;-1.06;75.19;98753.94;5050100;28;20041;-81
2022/01/15 00:18:14;;;;;;;1.55;0.20;;;;;;;-1.06;75.34;98756.63;5050675;28;20037;-82
2022/01/15 00:20:40;;;;;;;0.43;0.20;;;;;;;-1.06;75.35;98764.69;5039161;28;20153;-81
2022/01/15 00:23:05;;;;;;;0.25;0.25;;;;;;;-1.04;75.19;98770.66;5040361;28;20446;-81
2022/01/15 00:25:33;;;;;;;1.70;0.30;;;;;;;-1.03;75.28;98766.09;5051342;28;20106;-82
2022/01/15 00:28:00;;;;;;;0.73;0.40;;;;;;;-1.04;76.13;98764.44;5051879;28;20045;-82
2022/01/15 00:30:25;;;;;;;1.55;0.40;;;;;;;-1.03;75.33;98783.06;5048964;28;20052;-82
2022/01/15 00:33:09;;;;;;;1.30;0.30;;;;;;;-1.03;75.08;98793.03;5036089;28;20047;-81
2022/01/15 00:35:53;;;;;;;0.80;0.30;;;;;;;-1.05;75.39;98787.84;5050866;28;20047;-81
2022/01/15 00:38:38;;;;;;;0.80;0.30;;;;;;;-1.05;75.02;98795.13;5036545;28;20075;-82
2022/01/15 00:41:23;;;;;;;0.60;0.40;;;;;;;-1.04;75.10;98802.97;5049982;28;20107;-82
2022/01/15 00:44:07;;;;;;;0.55;0.40;;;;;;;-1.04;75.48;98802.13;5043099;28;20048;-82
2022/01/15 00:46:33;;;;;;;1.17;0.50;;;;;;;-1.03;75.50;98806.47;5058761;28;20037;-82
2022/01/15 00:48:58;;;;;;;0.88;0.40;;;;;;;-1.02;75.63;98829.63;5017254;28;20033;-82
2022/01/15 00:51:25;;;;;;;0.40;0.38;;;;;;;-1.01;74.97;98817.81;5050878;28;20044;-82
2022/01/15 00:53:50;;;;;;;0.68;0.35;;;;;;;-1.02;75.10;98827.75;5049853;28;20406;-82
2022/01/15 00:56:16;;;;;;;1.02;0.52;;;;;;;-1.03;75.12;98828.00;5055881;28;20037;-81
2022/01/15 00:58:41;;;;;;;2.05;0.50;;;;;;;-1.03;75.36;98834.22;5064213;28;20094;-81
2022/01/15 01:01:07;;;;;;;0.50;0.40;;;;;;;-1.04;75.61;98846.03;5042164;28;20087;-81
2022/01/15 01:03:33;;;;;;;0.20;0.20;;;;;;;-1.03;75.61;98844.16;5050169;28;20041;-80
2022/01/15 01:05:58;;;;;;;2.00;0.40;;;;;;;-1.03;75.67;98853.06;5051369;28;20048;-81
2022/01/15 01:08:24;;;;;;;1.40;0.43;;;;;;;-1.02;75.29;98860.06;5049146;28;20507;-81
2022/01/15 01:10:58;;;;;;;0.82;0.65;;;;;;;-1.03;75.73;98861.13;5043953;28;20033;-81
2022/01/15 01:24:15;;;;;;;0.63;0.40;;;;;;;-1.00;75.33;98889.41;5050584;28;20033;-80
2022/01/15 01:26:56;;;;;;;0.60;0.20;;;;;;;-1.00;75.34;98889.41;5049907;28;20054;-80
2022/01/15 01:29:37;;;;;;;2.95;0.30;;;;;;;-1.01;75.95;98899.38;5039911;28;20037;-81
2022/01/15 01:32:09;;;;;;;0.98;0.40;;;;;;;-0.99;75.17;98902.63;5042226;28;20037;-80
2022/01/15 01:34:39;;;;;;;0.17;0.17;;;;;;;-0.99;75.26;98899.94;5047330;28;21619;-80
2022/01/15 01:37:15;;;;;;;;;;;;;;;-0.99;74.81;98905.31;5047470;28;20045;-80
2022/01/15 01:39:55;;;;;;;0.20;0.20;;;;;;;-1.00;74.74;98903.69;5048833;28;19970;-80
2022/01/15 01:45:07;;;;;;;0.20;0.10;;;;;;;-0.99;74.36;98918.78;5049010;28;20453;-81
2022/01/15 01:47:39;;;;;;;0.45;0.20;;;;;;;-0.99;74.13;98921.47;5054282;28;20037;-81
2022/01/15 01:50:15;;;;;;;0.10;0.10;;;;;;;-0.98;74.29;98939.25;5036558;28;20513;-80
2022/01/15 01:52:42;;;;;;;0.45;0.20;;;;;;;-0.97;74.24;98953.53;5054547;28;20090;-80
2022/01/15 01:55:09;;;;;;;0.10;0.10;;;;;;;-0.96;74.40;98960.53;5019430;28;20045;-80
2022/01/15 01:57:35;;;;;;;0.85;0.20;;;;;;;-0.97;73.64;98953.53;5052687;28;20040;-80
2022/01/15 02:00:01;;;;;;;0.17;0.10;;;;;;;-0.98;73.78;98957.28;5051104;28;20041;-80
2022/01/15 02:02:26;;;;;;;0.55;0.20;;;;;;;-0.98;74.21;98958.09;5048501;28;20064;-80
2022/01/15 02:04:57;;;;;;;0.52;0.20;;;;;;;-0.99;73.64;98967.25;5049218;28;20080;-81
2022/01/15 02:07:25;;;;;;;0.55;0.22;;;;;;;-1.02;73.95;98973.13;5056647;28;20033;-81
2022/01/15 02:09:52;;;;;;;0.17;0.10;;;;;;;-1.02;73.23;98986.59;5052763;28;20517;-82
2022/01/15 02:12:18;;;;;;;0.35;0.25;;;;;;;-1.01;73.63;99007.06;5060408;28;20036;-81
2022/01/15 02:14:49;;;;;;;0.10;0.10;;;;;;;-1.00;73.31;99007.88;5056560;28;20095;-80
2022/01/15 02:17:20;;;;;;;1.75;0.20;;;;;;;-1.01;73.45;99011.63;5058724;28;20515;-80
2022/01/15 02:25:12;;;;;;;0.32;0.30;;;;;;;-0.99;73.63;99026.47;5053754;28;20067;-81
2022/01/15 02:27:38;;;;;;;0.90;0.13;;;;;;;-1.00;73.39;99032.91;5054401;28;20037;-81
2022/01/15 02:30:05;;;;;;;0.20;0.20;;;;;;;-1.00;73.83;99024.03;5036015;28;20502;-81
2022/01/15 02:32:32;;;;;;;0.10;0.10;;;;;;;-0.99;73.30;99039.94;5051971;28;20079;-81
2022/01/15 02:34:59;;;;;;;0.10;0.10;;;;;;;-1.00;73.14;99034.78;5053442;28;20041;-81
2022/01/15 02:37:25;;;;;;;0.20;0.20;;;;;;;-1.00;73.20;99051.75;5032679;28;20123;-81
2022/01/15 02:39:50;;;;;;;0.52;0.30;;;;;;;-1.02;73.41;99067.34;5049527;28;20135;-81
2022/01/15 02:42:23;;;;;;;2.15;0.57;;;;;;;-1.02;73.44;99070.03;5031180;28;20446;-80
2022/01/15 02:44:48;;;;;;;0.20;0.20;;;;;;;-1.02;73.36;99083.50;5031483;28;20434;-80
2022/01/15 02:49:58;;;;;;;0.40;0.20;;;;;;;-0.98;73.65;99095.41;5049507;28;20049;-81
2022/01/15 02:52:29;;;;;;;1.00;0.30;;;;;;;-0.98;73.79;99091.91;5048965;28;20155;-81
2022/01/15 02:54:55;;;;;;;1.10;0.60;;;;;;;-0.99;74.19;99093.78;5048599;28;20052;-81
2022/01/15 02:57:21;;;;;;;0.32;0.32;;;;;;;-0.99;73.65;99111.78;5049555;28;20037;-81
2022/01/15 02:59:46;;;;;;;0.28;0.28;;;;;;;-1.01;73.19;99114.72;5031361;28;20044;-81
2022/01/15 03:02:12;;;;;;;1.10;0.30;;;;;;;-1.01;73.16;99100.47;5064047;28;20804;-80
2022/01/15 03:04:38;;;;;;;0.85;0.20;;;;;;;-1.03;73.79;99127.63;5050525;28;20174;-81
2022/01/15 03:07:05;;;;;;;0.22;0.10;;;;;;;-1.02;72.25;99140.03;5031838;28;20045;-79
2022/01/15 03:09:31;;;;;;;0.90;0.25;;;;;;;-1.01;72.40;99136.28;5031137;28;20037;-80
2022/01/15 03:12:01;;;;;;;0.32;0.32;;;;;;;-1.00;72.83;99143.28;5031225;28;20449;-81
2022/01/15 03:14:30;;;;;;;0.40;0.35;;;;;;;-1.00;72.78;99145.16;5048125;28;20047;-81
2022/01/15 03:16:56;;;;;;;0.10;0.10;;;;;;;-1.02;72.71;99150.78;5048356;28;20044;-81
2022/01/15 03:19:21;;;;;;;0.20;0.20;;;;;;;-1.01;72.76;99148.91;5068396;28;20040;-81
2022/01/15 03:21:47;;;;;;;0.35;0.30;;;;;;;-1.01;72.69;99167.75;5049585;28;20046;-81
2022/01/15 03:24:12;;;;;;;0.20;0.10;;;;;;;-0.99;73.17;99176.41;5040896;28;20148;-81
2022/01/15 03:26:38;;;;;;;0.28;0.20;;;;;;;-0.98;73.25;99186.13;5052550;28;20041;-81
2022/01/15 03:29:03;;;;;;;0.47;0.40;;;;;;;-0.98;73.34;99195.00;5035076;28;20526;-81
2022/01/15 03:31:29;;;;;;;2.13;0.17;;;;;;;-1.00;73.45;99207.09;5051691;28;20131;-81
2022/01/15 03:33:55;;;;;;;0.38;0.32;;;;;;;-1.01;73.52;99210.84;5052416;28;20068;-81
2022/01/15 03:36:20;;;;;;;3.42;0.30;;;;;;;-1.03;73.69;99208.38;5018024;28;20414;-81
2022/01/15 03:38:46;;;;;;;0.52;0.35;;;;;;;-1.02;73.18;99219.97;5052149;28;20037;-81
2022/01/15 03:41:11;;;;;;;1.25;0.70;;;;;;;-1.04;73.37;99228.28;5051052;28;20032;-80
2022/01/15 03:43:37;;;;;;;0.10;0.10;;;;;;;-1.05;73.05;99226.63;5048497;28;20534;-81
2022/01/15 03:46:02;;;;;;;0.43;0.20;;;;;;;-1.05;72.47;99226.63;5051682;28;20127;-81
2022/01/15 03:48:28;;;;;;;1.05;0.30;;;;;;;-1.06;73.02;99230.38;5052421;28;20047;-81
2022/01/15 03:50:54;;;;;;;0.03;0.03;;;;;;;-1.04;72.86;99233.69;5054023;28;20033;-81
2022/01/15 03:53:21;;;;;;;0.20;0.10;;;;;;;-1.03;72.35;99238.00;5046071;28;20065;-81
2022/01/15 03:55:47;;;;;;;0.00;0.00;;;;;;;-1.05;71.78;99245.47;5066547;28;20087;-81
2022/01/15 03:58:13;;;;;;;1.75;0.20;;;;;;;-1.07;72.34;99242.22;5051144;28;20069;-82
2022/01/15 04:00:38;;;;;;;1.08;0.22;;;;;;;-1.07;72.06;99261.06;5046454;28;20037;-80
2022/01/15 04:03:04;;;;;;;0.40;0.30;;;;;;;-1.06;72.15;99257.28;5055576;28;20032;-80
2022/01/15 04:05:31;;;;;;;0.20;0.20;;;;;;;-1.04;72.30;99268.66;5054516;28;20116;-81
2022/01/15 04:07:56;;;;;;;0.20;0.20;;;;;;;-1.02;72.43;99265.75;5051330;28;20047;-82
2022/01/15 04:10:22;;;;;;;0.20;0.15;;;;;;;-1.01;72.01;99270.88;5052517;28;20438;-82
2022/01/15 04:12:47;;;;;;;0.47;0.30;;;;;;;-0.99;72.04;99279.53;5034653;28;20041;-82
2022/01/15 04:15:15;;;;;;;0.32;0.10;;;;;;;-1.02;72.07;99277.31;5049351;28;20503;-82
2022/01/15 04:17:45;;;;;;;0.38;0.30;;;;;;;-1.01;72.05;99297.81;5053319;28;20491;-82
2022/01/15 04:20:12;;;;;;;0.25;0.20;;;;;;;-1.02;72.56;99290.78;5062910;28;20045;-83
2022/01/15 04:22:37;;;;;;;0.95;0.47;;;;;;;-1.02;72.55;99306.13;5050855;28;20057;-82
2022/01/15 04:25:03;;;;;;;1.80;0.60;;;;;;;-1.03;72.06;99304.47;5050499;28;20044;-82
2022/01/15 04:27:29;;;;;;;1.45;0.70;;;;;;;-1.05;72.68;99310.06;5042749;28;20101;-82
2022/01/15 04:29:56;;;;;;;0.73;0.63;;;;;;;-1.03;73.19;99309.88;5050460;28;20036;-81
2022/01/15 04:32:22;;;;;;;2.20;1.10;;;;;;;-1.03;72.93;99320.63;5051832;28;20063;-81
2022/01/15 04:34:48;;;;;;;1.27;0.88;;;;;;;-1.04;73.02;99319.81;5059195;28;20040;-83
2022/01/15 04:37:20;;;;;;;1.10;0.80;;;;;;;-1.05;73.26;99318.16;5012456;28;20089;-82
2022/01/15 04:39:46;;;;;;;1.20;0.60;;;;;;;-1.05;73.03;99334.31;5064716;28;20553;-81
2022/01/15 04:42:12;;;;;;;2.05;0.60;;;;;;;-1.05;73.61;99337.00;5052165;28;20116;-80
2022/01/15 04:44:38;;;;;;;1.90;1.10;;;;;;;-1.06;73.38;99338.06;5048234;28;20037;-80
2022/01/15 04:47:04;;;;;;;1.60;0.77;;;;;;;-1.07;72.75;99343.69;5046993;28;20067;-78
2022/01/15 04:49:31;;;;;;;0.65;0.60;;;;;;;-1.09;73.24;99349.31;5020791;28;20055;-81
2022/01/15 04:51:56;;;;;;;0.68;0.50;;;;;;;-1.11;72.60;99351.41;5063886;28;20032;-81
2022/01/15 04:54:22;;;;;;;0.50;0.43;;;;;;;-1.14;72.29;99356.47;5023938;28;20032;-81
2022/01/15 04:56:47;;;;;;;0.52;0.40;;;;;;;-1.18;71.24;99361.50;5048516;28;20033;-81
2022/01/15 04:59:13;;;;;;;0.57;0.40;;;;;;;-1.21;71.24;99356.59;5047931;28;20037;-81
2022/01/15 05:01:38;;;;;;;1.80;0.40;;;;;;;-1.23;71.30;99348.72;5033848;28;20037;-81
2022/01/15 05:04:04;;;;;;;0.45;0.45;;;;;;;-1.21;71.78;99361.97;5051628;28;20025;-81
2022/01/15 05:06:30;;;;;;;0.40;0.20;;;;;;;-1.20;71.44;99376.25;5050112;28;20131;-81
2022/01/15 05:09:04;;;;;;;0.85;0.50;;;;;;;-1.21;72.04;99380.81;5049724;28;20048;-81
2022/01/15 05:11:43;;;;;;;0.60;0.60;;;;;;;-1.21;72.23;99378.13;5050498;28;20539;-81
2022/01/15 05:14:09;;;;;;;0.57;0.57;;;;;;;-1.21;72.21;99394.28;5049923;28;20087;-81
2022/01/15 05:16:35;;;;;;;1.23;0.65;;;;;;;-1.22;72.41;99395.31;5049766;28;20037;-81
2022/01/15 05:19:00;;;;;;;0.80;0.68;;;;;;;-1.24;72.41;99400.09;5032539;28;20048;-81
2022/01/15 05:21:26;;;;;;;1.50;0.63;;;;;;;-1.26;72.68;99403.03;5056315;28;20099;-81
2022/01/15 05:23:51;;;;;;;0.75;0.68;;;;;;;-1.30;72.83;99399.19;5050770;28;20163;-81
2022/01/15 05:26:17;;;;;;;1.13;0.52;;;;;;;-1.33;72.33;99406.91;5033149;28;20510;-81
2022/01/15 05:28:42;;;;;;;1.02;0.70;;;;;;;-1.34;72.35;99426.81;5050272;28;20047;-81
2022/01/15 05:31:08;;;;;;;1.25;0.60;;;;;;;-1.35;72.33;99425.16;5049236;28;20526;-81
2022/01/15 05:33:33;;;;;;;0.70;0.40;;;;;;;-1.36;72.03;99423.53;5049223;28;20029;-81
2022/01/15 05:36:00;;;;;;;0.52;0.50;;;;;;;-1.35;72.02;99427.84;5049104;28;20047;-81
2022/01/15 05:38:26;;;;;;;0.38;0.38;;;;;;;-1.35;72.25;99431.38;5050076;28;20037;-81
2022/01/15 05:40:51;;;;;;;2.42;0.38;;;;;;;-1.34;72.03;99441.06;5048984;28;20424;-81
2022/01/15 05:43:17;;;;;;;0.77;0.30;;;;;;;-1.34;72.23;99448.31;5030574;28;20037;-81
2022/01/15 05:45:42;;;;;;;0.47;0.47;;;;;;;-1.34;72.29;99454.53;5032508;28;20064;-80
2022/01/15 05:48:08;;;;;;;1.42;0.50;;;;;;;-1.36;72.56;99451.25;5049705;28;20190;-82
2022/01/15 05:50:34;;;;;;;1.00;0.60;;;;;;;-1.37;72.37;99456.88;5048814;28;20071;-81
2022/01/15 05:52:59;;;;;;;1.50;0.60;;;;;;;-1.37;72.78;99473.00;5050654;28;20574;-81
2022/01/15 05:55:25;;;;;;;1.33;0.50;;;;;;;-1.36;72.62;99482.72;5050593;28;20044;-81
2022/01/15 05:57:51;;;;;;;0.77;0.63;;;;;;;-1.37;72.93;99481.09;5050326;28;20170;-81
2022/01/15 06:00:17;;;;;;;2.47;0.65;;;;;;;-1.40;72.73;99492.28;5032683;28;20044;-81
2022/01/15 06:02:42;;;;;;;1.67;0.85;;;;;;;-1.39;73.05;99504.69;5050392;28;20079;-81
2022/01/15 06:05:09;;;;;;;0.82;0.70;;;;;;;-1.40;72.84;99508.44;5050653;28;20519;-81
2022/01/15 06:07:34;;;;;;;0.55;0.52;;;;;;;-1.40;73.42;99513.81;5049869;28;20622;-81
2022/01/15 06:10:00;;;;;;;0.80;0.50;;;;;;;-1.40;73.30;99516.50;5049170;28;20128;-80
2022/01/15 06:12:33;;;;;;;1.05;0.60;;;;;;;-1.41;73.06;99521.06;5049851;28;20044;-83
2022/01/15 06:14:59;;;;;;;0.55;0.50;;;;;;;-1.41;73.73;99525.63;5050170;28;20049;-81
2022/01/15 06:17:25;;;;;;;0.40;0.40;;;;;;;-1.41;73.35;99528.31;5032428;28;20041;-82
2022/01/15 06:19:51;;;;;;;1.27;1.02;;;;;;;-1.41;73.57;99533.69;5050241;28;20041;-81
2022/01/15 06:22:16;;;;;;;0.40;0.40;;;;;;;-1.43;73.73;99533.09;5050245;28;20052;-82
2022/01/15 06:24:42;;;;;;;0.95;0.38;;;;;;;-1.46;73.67;99538.94;5049241;28;20045;-82
2022/01/15 06:27:11;;;;;;;0.63;0.50;;;;;;;-1.47;73.59;99534.63;5030550;28;20029;-81
2022/01/15 06:29:38;;;;;;;0.93;0.57;;;;;;;-1.47;73.40;99545.38;5065462;28;20095;-81
2022/01/15 06:32:04;;;;;;;1.55;0.65;;;;;;;-1.50;73.16;99552.06;5052852;28;20388;-81
2022/01/15 06:34:35;;;;;;;1.70;0.60;;;;;;;-1.54;73.90;99562.44;5053260;28;20553;-81
2022/01/15 06:37:01;;;;;;;1.80;0.60;;;;;;;-1.56;73.68;99564.56;5035972;28;20098;-81
2022/01/15 06:39:26;;;;;;;3.25;0.75;;;;;;;-1.58;73.79;99566.63;5036164;28;20044;-81
2022/01/15 06:41:52;;;;;;;0.70;0.60;;;;;;;-1.59;73.53;99559.59;5053630;28;20052;-81
2022/01/15 06:44:18;;;;;;;0.93;0.70;;;;;;;-1.59;73.54;99575.75;5053244;28;20407;-81
2022/01/15 06:46:43;;;;;;;0.77;0.47;;;;;;;-1.59;73.54;99575.75;5035510;28;20411;-82
2022/01/15 06:49:10;;;;;;;1.10;0.40;;;;;;;-1.60;73.33;99582.19;5052892;28;20052;-81
2022/01/15 06:51:35;;;;;;;0.68;0.65;;;;;;;-1.61;73.50;99585.91;5035821;28;20064;-82
2022/01/15 06:54:01;;;;;;;0.45;0.45;;;;;;;-1.61;74.08;99591.28;5053398;28;20067;-82
2022/01/15 06:56:27;;;;;;;1.13;0.80;;;;;;;-1.62;74.02;99589.66;5053494;28;20423;-82
2022/01/15 06:58:53;;;;;;;2.10;0.70;;;;;;;-1.61;74.21;99599.38;5053087;28;20570;-82
2022/01/15 07:01:19;;;;;;;1.45;0.68;;;;;;;-1.59;74.04;99601.81;5053208;28;20043;-82
2022/01/15 07:03:44;;;;;;;1.08;0.52;;;;;;;-1.58;73.54;99601.59;5053207;28;20063;-82
2022/01/15 07:06:10;;;;;;;2.33;0.82;;;;;;;-1.57;74.26;99610.50;5053502;28;20407;-82
2022/01/15 07:08:35;;;;;;;1.73;0.60;;;;;;;-1.58;74.11;99620.44;5053329;28;20423;-83
2022/01/15 07:11:01;;;;;;;0.93;0.55;;;;;;;-1.58;74.28;99614.22;5052569;28;20053;-82
2022/01/15 07:13:29;;;;;;;1.88;0.60;;;;;;;-1.57;74.33;99615.88;5035169;28;20052;-82
2022/01/15 07:15:55;;;;;;;1.77;1.10;;;;;;;-1.58;74.14;99611.53;5052016;28;20127;-83
2022/01/15 07:18:21;;;;;;;1.30;0.73;;;;;;;-1.56;74.34;99621.06;5035098;28;20394;-83
2022/01/15 07:20:47;;;;;;;1.75;0.60;;;;;;;-1.57;74.30;99635.50;5032449;28;20040;-83
2022/01/15 07:23:12;;;;;;;0.85;0.60;;;;;;;-1.58;74.07;99627.69;5052416;28;20037;-83
2022/01/15 07:25:38;;;;;;;0.80;0.70;;;;;;;-1.59;74.50;99634.09;5052674;28;20041;-82
2022/01/15 07:28:04;;;;;;;1.08;0.70;;;;;;;-1.60;74.28;99638.66;5052701;28;20595;-82
2022/01/15 07:30:29;;;;;;;3.00;0.80;;;;;;;-1.59;74.28;99651.06;5051590;28;20041;-82
2022/01/15 07:32:55;;;;;;;1.38;0.70;;;;;;;-1.59;74.41;99656.44;5034770;28;20048;-82
2022/01/15 07:35:21;;;;;;;1.98;0.80;;;;;;;-1.58;75.21;99658.09;5050799;28;20120;-81
2022/01/15 07:37:46;;;;;;;0.90;0.80;;;;;;;-1.58;74.93;99668.84;5052560;28;20033;-82
2022/01/15 07:40:12;;;;;;;1.48;0.50;;;;;;;-1.59;75.04;99666.38;5053011;28;20072;-82
2022/01/15 07:42:40;;;;;;;1.83;0.90;;;;;;;-1.59;75.04;99675.28;5051882;28;20091;-81
2022/01/15 07:45:09;;;;;;;2.45;0.90;;;;;;;-1.60;75.22;99667.44;5052493;28;20110;-81
2022/01/15 07:47:35;;;;;;;1.97;0.80;;;;;;;-1.59;75.16;99680.66;5052712;28;20037;-81
2022/01/15 07:50:01;;;;;;;0.80;0.50;;;;;;;-1.58;75.24;99684.16;5058946;28;20389;-81
2022/01/15 07:52:26;;;;;;;2.72;0.73;;;;;;;-1.60;74.99;99686.25;5052306;28;20033;-84
2022/01/15 07:54:52;;;;;;;1.38;0.47;;;;;;;-1.61;75.59;99693.50;5034896;28;20047;-81
2022/01/15 07:57:17;;;;;;;0.60;0.43;;;;;;;-1.62;74.98;99712.56;5051518;28;20076;-81
2022/01/15 07:59:43;;;;;;;1.30;0.70;;;;;;;-1.64;75.47;99712.78;5034159;28;20052;-82
2022/01/15 08:02:09;;;;;;;2.95;0.90;;;;;;;-1.65;75.24;99711.16;5052009;28;20032;-81
2022/01/15 08:04:34;;;;;;;0.85;0.60;;;;;;;-1.65;75.51;99708.47;5051857;28;20140;-82
2022/01/15 08:07:00;;;;;;;1.33;0.60;;;;;;;-1.62;75.81;99716.06;5052481;28;20384;-81
2022/01/15 08:09:25;;;;;;;1.67;0.90;;;;;;;-1.62;75.69;99717.94;5050796;28;20711;-82
2022/01/15 08:11:51;;;;;;;0.65;0.60;;;;;;;-1.62;75.73;99720.63;5045625;28;20112;-82
2022/01/15 08:14:17;;;;;;;2.05;0.90;;;;;;;-1.61;76.06;99715.03;5050590;28;20075;-82
2022/01/15 08:16:43;;;;;;;1.75;0.93;;;;;;;-1.60;76.16;99719.34;5051266;28;20045;-82
2022/01/15 08:19:08;;;;;;;1.05;0.70;;;;;;;-1.60;76.36;99727.44;5051650;28;20045;-82
2022/01/15 08:21:34;;;;;;;1.50;1.25;;;;;;;-1.61;76.09;99728.47;5051614;28;20551;-82
2022/01/15 08:24:00;;;;;;;1.75;0.77;;;;;;;-1.61;76.41;99739.25;5050780;28;20518;-82
2022/01/15 08:26:25;;;;;;;1.50;0.70;;;;;;;-1.60;76.37;99732.81;5051547;28;20035;-82
2022/01/15 08:28:51;;;;;;;1.23;0.73;;;;;;;-1.60;76.60;99742.75;5051671;28;20041;-81
2022/01/15 08:31:17;;;;;;;1.33;0.70;;;;;;;-1.60;76.51;99742.75;5051280;28;20032;-82
2022/01/15 08:33:42;;;;;;;1.50;0.80;;;;;;;-1.62;77.18;99745.66;5033246;28;20467;-82
2022/01/15 08:36:08;;;;;;;1.13;0.70;;;;;;;-1.61;76.65;99744.63;5051474;28;20036;-82
2022/01/15 08:38:34;;;;;;;1.98;0.88;;;;;;;-1.61;77.17;99741.09;5051268;28;20072;-82
2022/01/15 08:40:59;;;;;;;3.50;0.60;;;;;;;-1.60;76.82;99746.25;5066624;28;20087;-82
2022/01/15 08:43:25;;;;;;;1.00;0.60;;;;;;;-1.62;77.20;99742.97;5016863;28;20033;-82
2022/01/15 08:45:50;;;;;;;1.13;0.80;;;;;;;-1.62;77.43;99742.97;5042950;28;20048;-81
2022/01/15 08:48:19;;;;;;;1.33;0.68;;;;;;;-1.62;77.49;99748.34;5039569;28;20037;-82
2022/01/15 08:50:48;;;;;;;2.05;1.20;;;;;;;-1.63;77.39;99749.41;5044009;28;20044;-81
2022/01/15 08:53:16;;;;;;;2.33;1.25;;;;;;;-1.67;77.78;99767.03;5050170;28;20534;-81
2022/01/15 08:55:43;;;;;;;1.77;1.20;;;;;;;-1.67;78.20;99755.47;5051180;28;20040;-81
2022/01/15 08:58:09;;;;;;;2.47;1.10;;;;;;;-1.68;78.35;99768.09;5050837;28;20040;-80
2022/01/15 09:00:35;;;;;;;2.38;1.13;;;;;;;-1.69;78.26;99755.69;5051441;28;20041;-81
2022/01/15 09:03:00;;;;;;;1.52;1.00;;;;;;;-1.67;78.15;99760.84;5051513;28;20503;-81
2022/01/15 09:05:26;;;;;;;3.35;1.27;;;;;;;-1.63;78.36;99759.34;5049685;28;20116;-82
2022/01/15 09:07:52;;;;;;;1.52;0.75;;;;;;;-1.59;78.45;99755.16;5051167;28;20037;-81
2022/01/15 09:10:17;;;;;;;1.30;0.75;;;;;;;-1.61;78.63;99752.69;5050980;28;20044;-81
2022/01/15 09:12:43;;;;;;;1.95;0.77;;;;;;;-1.60;78.69;99754.31;5050916;28;20083;-81
2022/01/15 09:15:09;;;;;;;2.15;0.88;;;;;;;-1.62;78.95;99767.19;5066529;28;20037;-81
2022/01/15 09:17:35;;;;;;;1.05;0.77;;;;;;;-1.67;78.91;99779.66;5049411;28;20055;-82
2022/01/15 09:20:00;;;;;;;0.75;0.70;;;;;;;-1.66;79.00;99776.75;5036417;28;20032;-81
2022/01/15 09:22:26;;;;;;;1.65;0.55;;;;;;;-1.68;79.29;99783.41;5045337;28;20150;-81
2022/01/15 09:24:51;;;;;;;0.90;0.60;;;;;;;-1.71;78.96;99781.97;5050678;28;20075;-80
2022/01/15 09:30:14;;;;;;;1.52;0.88;;;;;;;-1.71;79.63;99784.69;5050626;28;20040;-83
2022/01/15 09:32:53;;;;;;;3.75;1.00;;;;;;;-1.68;80.14;99789.59;5032743;28;20052;-81
2022/01/15 09:35:20;;;;;;;0.93;0.52;;;;;;;-1.65;79.83;99783.78;5050839;28;20044;-81
2022/01/15 09:37:47;;;;;;;1.23;0.82;;;;;;;-1.62;79.88;99786.00;5050890;28;20041;-81
2022/01/15 09:40:13;;;;;;;4.03;1.00;;;;;;;-1.60;79.98;99796.53;5049494;28;20410;-81
2022/01/15 09:42:40;;;;;;;0.70;0.60;;;;;;;-1.57;79.71;99791.53;5049341;28;20044;-82
2022/01/15 09:45:07;;;;;;;0.70;0.70;;;;;;;-1.55;80.24;99810.16;5050724;28;20186;-81
2022/01/15 09:47:33;;;;;;;0.80;0.70;;;;;;;-1.53;80.12;99802.69;5049290;28;20044;-81
2022/01/15 09:49:59;;;;;;;2.13;0.80;;;;;;;-1.50;79.78;99804.94;5048784;28;20029;-81
2022/01/15 09:52:24;;;;;;;1.00;0.70;;;;;;;-1.50;80.62;99818.38;5049314;28;20041;-81
2022/01/15 09:54:50;;;;;;;1.35;0.80;;;;;;;-1.50;80.03;99809.50;5032357;28;20044;-81
2022/01/15 09:57:17;;;;;;;2.33;0.90;;;;;;;-1.52;80.39;99818.63;5035332;28;20037;-81
2022/01/15 09:59:43;;;;;;;1.50;1.08;;;;;;;-1.56;80.56;99817.41;5049936;28;20048;-81
2022/01/15 10:02:09;;;;;;;1.08;0.85;;;;;;;-1.57;80.74;99823.00;5049860;28;20064;-82
2022/01/15 10:04:35;;;;;;;1.33;0.70;;;;;;;-1.57;80.74;99831.88;5048728;28;20080;-81
2022/01/15 10:07:28;;;;;;;0.90;0.75;;;;;;;-1.54;80.67;99820.72;5035567;28;20033;-83
2022/01/15 10:09:55;;;;;;;0.90;0.68;;;;;;;-1.54;81.25;99834.16;5040334;28;20471;-82
2022/01/15 10:12:30;;;;;;;0.70;0.60;;;;;;;-1.48;80.77;99837.00;5053947;28;20136;-82
2022/01/15 10:15:01;;;;;;;1.27;0.70;;;;;;;-1.49;81.03;99843.44;5043869;28;20463;-81
2022/01/15 10:17:27;;;;;;;1.63;1.08;;;;;;;-1.46;81.08;99837.59;5051395;28;20064;-83
2022/01/15 10:19:53;;;;;;;1.35;0.80;;;;;;;-1.46;81.05;99848.34;5054075;28;20560;-82
2022/01/15 10:22:20;;;;;;;0.98;0.70;;;;;;;-1.49;81.31;99848.81;5052935;28;20052;-81
2022/01/15 10:24:57;;;;;;;2.22;0.93;;;;;;;-1.47;81.58;99846.72;5053914;28;20087;-81
2022/01/15 10:27:38;;;;;;;2.40;1.10;;;;;;;-1.46;81.38;99837.59;5036416;28;20127;-81
2022/01/15 10:30:18;;;;;;;1.73;1.27;;;;;;;-1.43;81.31;99845.22;5053507;28;20456;-81
2022/01/15 10:33:10;;;;;;;1.40;0.70;;;;;;;-1.40;81.30;99842.91;5053144;28;20361;-81
2022/01/15 10:35:41;;;;;;;1.65;1.05;;;;;;;-1.40;81.29;99842.91;5054876;28;20090;-82
2022/01/15 10:38:16;;;;;;;1.77;1.10;;;;;;;-1.36;81.25;99849.50;5055348;28;20122;-82
2022/01/15 10:40:42;;;;;;;1.55;1.00;;;;;;;-1.32;81.84;99857.94;5053383;28;20490;-82
2022/01/15 10:43:09;;;;;;;1.17;0.88;;;;;;;-1.32;81.42;99856.09;5053615;28;20089;-82
2022/01/15 10:45:55;;;;;;;1.77;1.00;;;;;;;-1.31;81.24;99867.66;5052897;28;20040;-82
2022/01/15 10:48:21;;;;;;;1.15;0.95;;;;;;;-1.32;81.40;99858.78;5053687;28;20171;-81
2022/01/15 10:51:13;;;;;;;1.42;0.80;;;;;;;-1.27;81.72;99855.41;5051805;28;20037;-82
2022/01/15 10:53:42;;;;;;;1.70;0.90;;;;;;;-1.27;81.52;99871.56;5052704;28;20037;-81
2022/01/15 10:56:09;;;;;;;1.85;1.20;;;;;;;-1.27;81.73;99879.63;5051928;28;20115;-82
2022/01/15 10:58:36;;;;;;;2.20;0.90;;;;;;;-1.27;81.48;99882.31;5051582;28;20044;-82
2022/01/15 11:01:03;;;;;;;2.05;1.10;;;;;;;-1.27;81.71;99882.31;5052869;28;20079;-82
2022/01/15 11:03:37;;;;;;;1.90;0.80;;;;;;;-1.27;81.66;99888.53;5053273;28;20033;-81
2022/01/15 11:06:03;;;;;;;2.10;1.00;;;;;;;-1.25;81.21;99893.69;5035085;28;20048;-78
2022/01/15 11:08:29;;;;;;;2.88;1.23;;;;;;;-1.24;82.04;99879.19;5047668;28;20041;-78
2022/01/15 11:11:06;;;;;;;2.08;1.13;;;;;;;-1.26;81.89;99878.59;5040851;28;20040;-78
2022/01/15 11:13:36;;;;;;;0.95;0.70;;;;;;;-1.27;82.01;99880.44;5052820;28;20407;-78
2022/01/15 11:16:12;;;;;;;2.45;0.95;;;;;;;-1.27;82.01;99885.00;5035176;28;20423;-77
2022/01/15 11:18:41;;;;;;;2.20;1.13;;;;;;;-1.26;81.80;99884.78;5067741;28;20044;-77
2022/01/15 11:21:09;;;;;;;1.95;0.80;;;;;;;-1.27;81.97;99895.78;5053931;28;20097;-79
2022/01/15 11:23:37;;;;;;;1.33;0.90;;;;;;;-1.26;81.81;99897.41;5053066;28;20040;-81
2022/01/15 11:26:07;;;;;;;1.65;0.82;;;;;;;-1.27;81.92;99895.78;5054069;28;20295;-79
2022/01/15 11:28:35;;;;;;;2.13;1.05;;;;;;;-1.28;81.75;99888.75;5034639;28;20091;-82
2022/01/15 11:31:04;;;;;;;1.67;0.90;;;;;;;-1.25;82.11;99894.50;5050299;28;20044;-80
2022/01/15 11:33:39;;;;;;;2.13;1.02;;;;;;;-1.23;82.00;99888.91;5059805;28;20349;-80
2022/01/15 11:36:06;;;;;;;1.92;0.70;;;;;;;-1.22;82.13;99898.63;5052154;28;20040;-79
2022/01/15 11:38:43;;;;;;;1.83;0.80;;;;;;;-1.20;82.42;99906.50;5053131;28;20120;-79
2022/01/15 11:41:29;;;;;;;0.50;0.50;;;;;;;-1.21;82.11;99905.66;5034294;28;20045;-79
2022/01/15 11:43:59;;;;;;;1.52;0.80;;;;;;;-1.23;81.85;99910.44;5021546;28;20045;-78
2022/01/15 11:46:47;;;;;;;0.73;0.50;;;;;;;-1.24;82.29;99906.91;5067961;28;20033;-78
2022/01/15 11:49:40;;;;;;;0.93;0.40;;;;;;;-1.23;82.41;99907.75;5070894;28;20135;-79
2022/01/15 11:52:06;;;;;;;2.13;0.93;;;;;;;-1.24;82.11;99906.91;5019233;28;20037;-80
2022/01/15 11:54:33;;;;;;;0.50;0.50;;;;;;;-1.21;82.19;99911.06;5053493;28;20044;-78
2022/01/15 11:57:03;;;;;;;1.70;0.50;;;;;;;-1.23;82.04;99913.13;5048864;28;20044;-79
2022/01/15 11:59:44;;;;;;;1.27;0.70;;;;;;;-1.24;82.07;99920.38;5051419;28;20068;-78
2022/01/15 12:02:26;;;;;;;0.70;0.50;;;;;;;-1.20;82.36;99922.66;5050904;28;20033;-77